Nearby METAR Reports

 

K1A5 - Macon/Franklin, North Carolina, USA
Distance from station: WSW 16mi, 25km
Updated: Sun, 23-Jun-2024 9:45am EDT
Clear
Clear
 Wind from calm
Wind: Calm
Temperature: 77°F , 25°C
Dew Point: 66°F , 19°C
Humidity: 69%
Barometer: 30.10 inHg , 1019.3 hPa
Clouds: Clear
Visibility: 10 miles , 16 km
2024/06/23 13:45 K1A5 231345Z AUTO 00000KT 10SM CLR 25/19 A3010 RMK AO2 T02510193
KAVL - Asheville, North Carolina, USA
Distance from station: ENE 36mi, 59km
Updated: Sun, 23-Jun-2024 9:54am EDT
Clear
Clear
 Wind from calm
Wind: Calm
Temperature: 81°F , 27°C
Heat Index: 84°F , 29°C
Dew Point: 68°F , 20°C
Humidity: 66%
Barometer: 30.05 inHg , 1017.6 hPa
Clouds: Clear
Visibility: 10 miles , 16 km
2024/06/23 13:54 KAVL 231354Z 00000KT 10SM CLR 27/20 A3005 RMK AO2 SLP143 T02720200
 
KRHP - Andrews, North Carolina, USA
Distance from station: WSW 40mi, 64km
Updated: Sun, 23-Jun-2024 9:49am EDT
Clear
Clear
 Wind from calm
Wind: Calm
Temperature: 79°F , 26°C
Dew Point: 66°F , 19°C
Humidity: 65%
Barometer: 30.07 inHg , 1018.3 hPa
Clouds: Clear
Visibility: 10 miles , 16 km
2024/06/23 13:49 KRHP 231349Z AUTO 00000KT 10SM CLR 26/19 A3007 RMK AO2 T02630186
KLQK - Pickens, South Carolina, USA
Distance from station: SE 42mi, 68km
Updated: Sun, 23-Jun-2024 9:55am EDT
Clear
Clear
 Wind from SW
Wind: SW 3 mph , 6 km/h
Temperature: 84°F , 29°C
Heat Index: 92°F , 33°C
Dew Point: 75°F , 24°C
Humidity: 74%
Barometer: 29.99 inHg , 1015.6 hPa
Clouds: Clear
Visibility: 10 miles , 16 km
2024/06/23 13:55 KLQK 231355Z AUTO 23003KT 10SM CLR 29/24 A2999 RMK AO2 T02890242
 
KCEU - Clemson, South Carolina, USA
Distance from station: SSE 46mi, 75km
Updated: Sun, 23-Jun-2024 9:54am EDT
Clear
Clear
 Wind from WSW
Wind: WSW 5 mph , 7 km/h
Temperature: 82°F , 28°C
Heat Index: 87°F , 31°C
Dew Point: 73°F , 23°C
Humidity: 74%
Barometer: 29.99 inHg , 1015.6 hPa
Clouds: Clear
Visibility: 10 miles , 16 km
2024/06/23 13:54 KCEU 231354Z AUTO 25004KT 10SM CLR 28/23 A2999 RMK AO2 SLP144 T02780228
KTOC - Toccoa, Georgia, USA
Distance from station: S 49mi, 79km
Updated: Sun, 23-Jun-2024 9:35am EDT
Clear
Clear
 Wind from calm
Wind: Calm
Temperature: 81°F , 27°C
Heat Index: 85°F , 29°C
Dew Point: 70°F , 21°C
Humidity: 70%
Barometer: 30.01 inHg , 1016.3 hPa
Clouds: Clear
Visibility: 10 miles , 16 km
2024/06/23 13:35 KTOC 231335Z AUTO 00000KT 10SM CLR 27/21 A3001 RMK AO2 T02700210